sensor_id;sensor_type;location;lat;lon;timestamp;temperature;humidity
73875;HTU21D;62209;47.568;7.558;2022-10-17T00:01:47;14.96;102.38
73875;HTU21D;62209;47.568;7.558;2022-10-17T00:16:53;14.63;102.33
73875;HTU21D;62209;47.568;7.558;2022-10-17T00:31:59;14.54;103.27
73875;HTU21D;62209;47.568;7.558;2022-10-17T00:47:05;14.42;102.82
73875;HTU21D;62209;47.568;7.558;2022-10-17T01:02:14;14.22;103.30
73875;HTU21D;62209;47.568;7.558;2022-10-17T01:17:22;14.23;103.74
73875;HTU21D;62209;47.568;7.558;2022-10-17T01:32:35;14.10;104.34
73875;HTU21D;62209;47.568;7.558;2022-10-17T01:47:43;13.70;104.61
73875;HTU21D;62209;47.568;7.558;2022-10-17T02:02:51;13.30;104.46
73875;HTU21D;62209;47.568;7.558;2022-10-17T02:18:05;12.95;105.27
73875;HTU21D;62209;47.568;7.558;2022-10-17T02:33:24;12.79;105.80
73875;HTU21D;62209;47.568;7.558;2022-10-17T02:48:35;13.18;106.11
73875;HTU21D;62209;47.568;7.558;2022-10-17T03:03:45;13.11;106.20
73875;HTU21D;62209;47.568;7.558;2022-10-17T03:18:50;13.23;106.58
73875;HTU21D;62209;47.568;7.558;2022-10-17T03:33:56;13.15;106.60
73875;HTU21D;62209;47.568;7.558;2022-10-17T03:49:01;13.14;106.91
73875;HTU21D;62209;47.568;7.558;2022-10-17T04:04:07;13.19;106.85
73875;HTU21D;62209;47.568;7.558;2022-10-17T04:19:13;13.31;106.43
73875;HTU21D;62209;47.568;7.558;2022-10-17T04:34:19;13.40;107.05
73875;HTU21D;62209;47.568;7.558;2022-10-17T04:49:24;13.31;106.72
73875;HTU21D;62209;47.568;7.558;2022-10-17T05:04:30;13.18;106.88
73875;HTU21D;62209;47.568;7.558;2022-10-17T05:19:36;13.15;106.69
73875;HTU21D;62209;47.568;7.558;2022-10-17T05:34:41;13.22;107.04
73875;HTU21D;62209;47.568;7.558;2022-10-17T05:49:47;13.19;107.15
73875;HTU21D;62209;47.568;7.558;2022-10-17T06:04:54;13.29;106.73
73875;HTU21D;62209;47.568;7.558;2022-10-17T06:20:00;13.61;105.95
73875;HTU21D;62209;47.568;7.558;2022-10-17T06:35:06;13.99;105.54
73875;HTU21D;62209;47.568;7.558;2022-10-17T06:50:12;14.28;104.94
73875;HTU21D;62209;47.568;7.558;2022-10-17T07:05:18;15.01;103.17
73875;HTU21D;62209;47.568;7.558;2022-10-17T07:20:24;16.07;100.16
73875;HTU21D;62209;47.568;7.558;2022-10-17T07:35:30;17.13;96.93
73875;HTU21D;62209;47.568;7.558;2022-10-17T07:50:36;17.80;94.30
73875;HTU21D;62209;47.568;7.558;2022-10-17T08:05:41;18.50;91.62
73875;HTU21D;62209;47.568;7.558;2022-10-17T08:20:47;19.36;89.59
73875;HTU21D;62209;47.568;7.558;2022-10-17T08:35:53;20.24;86.78
73875;HTU21D;62209;47.568;7.558;2022-10-17T08:50:59;20.62;85.56
73875;HTU21D;62209;47.568;7.558;2022-10-17T09:06:14;21.65;83.68
73875;HTU21D;62209;47.568;7.558;2022-10-17T09:21:24;22.69;80.91
73875;HTU21D;62209;47.568;7.558;2022-10-17T09:36:37;23.10;80.00
73875;HTU21D;62209;47.568;7.558;2022-10-17T09:51:44;22.47;81.97
73875;HTU21D;62209;47.568;7.558;2022-10-17T10:07:01;22.86;80.31
73875;HTU21D;62209;47.568;7.558;2022-10-17T10:22:15;23.97;76.64
73875;HTU21D;62209;47.568;7.558;2022-10-17T10:37:22;24.54;75.29
73875;HTU21D;62209;47.568;7.558;2022-10-17T10:52:30;24.94;74.06
73875;HTU21D;62209;47.568;7.558;2022-10-17T11:07:42;25.19;73.64
73875;HTU21D;62209;47.568;7.558;2022-10-17T11:22:51;25.71;74.11
73875;HTU21D;62209;47.568;7.558;2022-10-17T11:38:02;25.62;70.74
73875;HTU21D;62209;47.568;7.558;2022-10-17T11:53:15;25.37;70.41
73875;HTU21D;62209;47.568;7.558;2022-10-17T12:08:24;25.10;68.33
73875;HTU21D;62209;47.568;7.558;2022-10-17T12:23:34;25.36;69.71
73875;HTU21D;62209;47.568;7.558;2022-10-17T12:38:41;25.10;68.93
73875;HTU21D;62209;47.568;7.558;2022-10-17T12:53:54;25.35;68.86
73875;HTU21D;62209;47.568;7.558;2022-10-17T13:09:03;25.49;69.39
73875;HTU21D;62209;47.568;7.558;2022-10-17T13:24:21;25.45;66.85
73875;HTU21D;62209;47.568;7.558;2022-10-17T13:39:32;25.78;68.45
73875;HTU21D;62209;47.568;7.558;2022-10-17T13:55:11;25.48;67.64
73875;HTU21D;62209;47.568;7.558;2022-10-17T14:10:22;25.28;68.73
73875;HTU21D;62209;47.568;7.558;2022-10-17T14:25:30;25.12;69.15
73875;HTU21D;62209;47.568;7.558;2022-10-17T14:40:46;24.80;71.38
73875;HTU21D;62209;47.568;7.558;2022-10-17T14:55:57;24.50;73.14
73875;HTU21D;62209;47.568;7.558;2022-10-17T15:11:05;24.04;72.88
73875;HTU21D;62209;47.568;7.558;2022-10-17T15:26:17;23.88;73.83
73875;HTU21D;62209;47.568;7.558;2022-10-17T15:41:25;23.59;73.80
73875;HTU21D;62209;47.568;7.558;2022-10-17T15:56:33;23.00;76.17
73875;HTU21D;62209;47.568;7.558;2022-10-17T16:11:41;22.48;80.24
73875;HTU21D;62209;47.568;7.558;2022-10-17T16:26:48;21.45;83.57
73875;HTU21D;62209;47.568;7.558;2022-10-17T16:41:54;20.54;88.20
73875;HTU21D;62209;47.568;7.558;2022-10-17T16:57:01;19.98;90.18
73875;HTU21D;62209;47.568;7.558;2022-10-17T17:12:07;19.35;92.33
73875;HTU21D;62209;47.568;7.558;2022-10-17T17:27:13;18.81;93.30
73875;HTU21D;62209;47.568;7.558;2022-10-17T17:42:19;18.40;94.91
73875;HTU21D;62209;47.568;7.558;2022-10-17T17:57:25;17.81;96.28
73875;HTU21D;62209;47.568;7.558;2022-10-17T18:12:33;17.43;97.80
73875;HTU21D;62209;47.568;7.558;2022-10-17T18:27:39;17.06;99.45
73875;HTU21D;62209;47.568;7.558;2022-10-17T18:42:45;17.15;98.48
73875;HTU21D;62209;47.568;7.558;2022-10-17T18:57:50;16.87;98.86
73875;HTU21D;62209;47.568;7.558;2022-10-17T19:12:56;16.79;99.70
73875;HTU21D;62209;47.568;7.558;2022-10-17T19:28:02;16.55;100.48
73875;HTU21D;62209;47.568;7.558;2022-10-17T19:43:08;16.36;100.21
73875;HTU21D;62209;47.568;7.558;2022-10-17T19:58:14;15.98;101.54
73875;HTU21D;62209;47.568;7.558;2022-10-17T20:13:20;15.73;102.83
73875;HTU21D;62209;47.568;7.558;2022-10-17T20:28:26;15.69;103.02
73875;HTU21D;62209;47.568;7.558;2022-10-17T20:43:32;15.62;103.32
73875;HTU21D;62209;47.568;7.558;2022-10-17T20:58:38;15.51;103.58
73875;HTU21D;62209;47.568;7.558;2022-10-17T21:13:44;15.95;103.22
73875;HTU21D;62209;47.568;7.558;2022-10-17T21:28:52;16.04;102.92
73875;HTU21D;62209;47.568;7.558;2022-10-17T21:44:00;16.18;102.25
73875;HTU21D;62209;47.568;7.558;2022-10-17T21:59:07;16.17;102.84
73875;HTU21D;62209;47.568;7.558;2022-10-17T22:14:14;16.14;102.94
73875;HTU21D;62209;47.568;7.558;2022-10-17T22:29:21;16.14;103.81
73875;HTU21D;62209;47.568;7.558;2022-10-17T22:44:27;16.14;103.41
73875;HTU21D;62209;47.568;7.558;2022-10-17T22:59:32;16.18;103.29
73875;HTU21D;62209;47.568;7.558;2022-10-17T23:14:38;16.20;102.64
73875;HTU21D;62209;47.568;7.558;2022-10-17T23:29:45;16.18;102.66
73875;HTU21D;62209;47.568;7.558;2022-10-17T23:44:51;16.10;102.73
73875;HTU21D;62209;47.568;7.558;2022-10-17T23:59:57;15.91;102.90
